Time;durP1;ratioP1;P1;durP2;ratioP2;P2;SDS_P1;SDS_P2;PMS_P1;PMS_P2;Temp;Humidity;BMP_temperature;BMP_pressure;BME280_temperature;BME280_humidity;BME280_pressure;Samples;Min_cycle;Max_cycle;Signal;HPM_P1;HPM_P2
2022/08/16 00:00:53;;;;;;;21.60;12.80;;;;;;;18.55;100.00;100454.06;5096212;28;20497;-77
2022/08/16 00:03:19;;;;;;;19.98;12.77;;;;;;;18.45;100.00;100460.31;5095885;28;20581;-76
2022/08/16 00:05:45;;;;;;;17.58;12.50;;;;;;;18.38;100.00;100459.00;5114286;28;20027;-76
2022/08/16 00:08:11;;;;;;;20.88;13.80;;;;;;;18.33;100.00;100457.13;5096136;28;20027;-76
2022/08/16 00:10:37;;;;;;;21.70;12.73;;;;;;;18.29;100.00;100461.47;5114545;28;20050;-76
2022/08/16 00:13:05;;;;;;;23.27;13.57;;;;;;;18.18;100.00;100451.72;5114893;28;20438;-76
2022/08/16 00:15:37;;;;;;;15.93;12.63;;;;;;;18.19;100.00;100461.47;5113966;28;20539;-76
2022/08/16 00:18:04;;;;;;;23.48;13.63;;;;;;;18.22;100.00;100455.53;5114905;28;20031;-76
2022/08/16 00:23:51;;;;;;;18.75;13.00;;;;;;;18.18;100.00;100460.66;5114726;28;20042;-76
2022/08/16 00:26:16;;;;;;;19.88;13.57;;;;;;;18.11;100.00;100454.72;5096149;28;20023;-76
2022/08/16 00:28:41;;;;;;;20.17;13.63;;;;;;;18.04;100.00;100469.63;5114247;28;20065;-76
2022/08/16 00:31:07;;;;;;;21.55;13.45;;;;;;;17.94;100.00;100465.84;5114658;28;20032;-77
2022/08/16 00:33:32;;;;;;;23.95;13.55;;;;;;;17.87;100.00;100464.47;5113634;28;20052;-76
2022/08/16 00:35:57;;;;;;;22.35;15.43;;;;;;;17.77;100.00;100464.50;5114604;28;20035;-76
2022/08/16 00:45:40;;;;;;;24.10;15.10;;;;;;;17.69;100.00;100478.56;5114640;28;20402;-77
2022/08/16 00:51:27;;;;;;;24.00;16.23;;;;;;;17.67;100.00;100475.28;5114535;28;20034;-76
2022/08/16 00:53:53;;;;;;;22.33;14.10;;;;;;;17.48;100.00;100469.59;5114311;28;20035;-76
2022/08/16 00:56:23;;;;;;;23.20;14.77;;;;;;;17.43;100.00;100478.50;5095881;28;20641;-76
2022/08/16 00:58:49;;;;;;;24.67;16.80;;;;;;;17.40;100.00;100479.03;5113157;28;20514;-76
2022/08/16 01:01:16;;;;;;;30.77;16.23;;;;;;;17.42;100.00;100487.69;5114195;28;20024;-76
2022/08/16 01:03:46;;;;;;;26.20;16.42;;;;;;;17.37;100.00;100476.88;5095499;28;20453;-76
2022/08/16 01:06:13;;;;;;;25.67;17.00;;;;;;;17.35;100.00;100476.34;5113233;28;20127;-76
2022/08/16 01:08:40;;;;;;;30.95;17.15;;;;;;;17.39;100.00;100484.72;5113881;28;20063;-76
2022/08/16 01:11:06;;;;;;;32.67;16.90;;;;;;;17.36;100.00;100485.25;5113127;28;20073;-76
2022/08/16 01:13:34;;;;;;;29.70;17.23;;;;;;;17.38;100.00;100478.50;5113768;28;20103;-76
2022/08/16 01:16:26;;;;;;;27.15;16.73;;;;;;;17.46;100.00;100485.25;5095556;28;20489;-76
2022/08/16 01:18:58;;;;;;;29.57;16.77;;;;;;;17.41;100.00;100487.97;5107102;28;20035;-76
2022/08/16 01:21:58;;;;;;;24.83;15.65;;;;;;;17.33;100.00;100475.75;5113890;28;20559;-76
2022/08/16 01:24:27;;;;;;;27.67;16.90;;;;;;;17.25;100.00;100479.00;5113022;28;20439;-76
2022/08/16 01:27:08;;;;;;;27.25;17.77;;;;;;;17.16;100.00;100464.41;5113657;28;20494;-76
2022/08/16 01:29:40;;;;;;;28.35;16.15;;;;;;;17.23;100.00;100481.16;5095224;28;20032;-76
2022/08/16 01:32:06;;;;;;;24.00;15.82;;;;;;;17.23;100.00;100476.56;5094679;28;20426;-76
2022/08/16 01:34:31;;;;;;;25.88;16.55;;;;;;;17.25;100.00;100477.13;5113514;28;20031;-76
2022/08/16 01:37:07;;;;;;;28.75;17.75;;;;;;;17.19;100.00;100470.06;5113461;28;20028;-76
2022/08/16 01:39:34;;;;;;;27.95;16.08;;;;;;;17.13;100.00;100475.75;5112817;28;20519;-76
2022/08/16 01:45:21;;;;;;;34.78;20.02;;;;;;;16.99;100.00;100468.13;5113562;28;20054;-76
2022/08/16 01:47:50;;;;;;;32.45;17.95;;;;;;;16.91;100.00;100479.44;5113237;28;20023;-76
2022/08/16 01:53:36;;;;;;;32.47;19.83;;;;;;;16.92;100.00;100481.06;5113832;28;20127;-79
2022/08/16 01:59:24;;;;;;;34.10;19.70;;;;;;;16.93;100.00;100479.19;5113403;28;20046;-75
2022/08/16 02:01:52;;;;;;;30.40;17.65;;;;;;;16.89;100.00;100480.78;5112960;28;20027;-75
2022/08/16 02:04:20;;;;;;;29.88;19.10;;;;;;;16.84;100.00;100478.88;5112460;28;20100;-76
2022/08/16 02:06:45;;;;;;;34.03;18.23;;;;;;;16.76;100.00;100476.69;5094908;28;20450;-75
2022/08/16 02:09:11;;;;;;;27.75;17.75;;;;;;;16.71;100.00;100477.47;5112953;28;20063;-76
2022/08/16 02:11:38;;;;;;;35.75;21.88;;;;;;;16.71;100.00;100480.16;5094235;28;20032;-76
2022/08/16 02:17:26;;;;;;;41.30;23.45;;;;;;;16.71;100.00;100474.78;5113384;28;20030;-79
2022/08/16 02:23:13;;;;;;;40.88;23.48;;;;;;;16.81;100.00;100474.03;5112815;28;20046;-74
2022/08/16 02:25:39;;;;;;;44.13;24.05;;;;;;;16.83;100.00;100477.28;5112763;28;20016;-76
2022/08/16 02:31:26;;;;;;;47.33;24.75;;;;;;;16.89;100.00;100473.50;5112894;28;20099;-77
2022/08/16 02:33:51;;;;;;;48.38;24.00;;;;;;;16.89;100.00;100462.69;5094398;28;20501;-79
2022/08/16 02:36:17;;;;;;;45.03;26.40;;;;;;;16.92;100.00;100472.97;5111819;28;20093;-80
2022/08/16 02:38:42;;;;;;;45.38;25.98;;;;;;;16.96;100.00;100470.56;5112603;28;20023;-78
2022/08/16 02:41:08;;;;;;;50.43;26.63;;;;;;;16.99;100.00;100481.63;5094350;28;20026;-78
2022/08/16 02:43:35;;;;;;;49.58;27.70;;;;;;;17.00;100.00;100477.03;5111741;28;20350;-78
2022/08/16 02:46:01;;;;;;;58.65;28.75;;;;;;;17.03;100.00;100466.50;5112536;28;20035;-78
2022/08/16 02:48:29;;;;;;;55.00;29.55;;;;;;;17.02;100.00;100462.19;5094227;28;20647;-77
2022/08/16 02:50:56;;;;;;;56.22;30.52;;;;;;;17.06;100.00;100470.59;5111709;28;20047;-77
2022/08/16 02:53:22;;;;;;;58.30;30.95;;;;;;;17.04;100.00;100465.44;5112579;28;20020;-78
2022/08/16 02:55:48;;;;;;;59.95;29.60;;;;;;;17.02;100.00;100464.88;5112269;28;20078;-77
2022/08/16 03:01:35;;;;;;;56.58;31.02;;;;;;;17.06;100.00;100464.34;5112484;28;20092;-78
2022/08/16 03:04:02;;;;;;;52.85;29.92;;;;;;;17.07;100.00;100461.41;5111429;28;20048;-76
2022/08/16 03:09:49;;;;;;;61.53;30.27;;;;;;;17.07;100.00;100458.72;5112185;28;20045;-76
2022/08/16 03:12:14;;;;;;;55.00;30.40;;;;;;;17.13;100.00;100462.22;5093936;28;20027;-76
2022/08/16 03:14:40;;;;;;;57.22;29.50;;;;;;;17.13;100.00;100459.53;5093915;28;20286;-76
2022/08/16 03:20:27;;;;;;;59.85;30.58;;;;;;;17.08;100.00;100462.22;5112413;28;20292;-74
2022/08/16 03:22:52;;;;;;;55.65;28.92;;;;;;;17.06;100.00;100454.38;5111244;28;20040;-77
2022/08/16 03:25:17;;;;;;;60.65;30.17;;;;;;;17.03;100.00;100454.91;5111939;28;20503;-78
2022/08/16 03:31:05;;;;;;;54.53;28.52;;;;;;;16.98;100.00;100455.69;5112215;28;20050;-79
2022/08/16 03:36:54;;;;;;;45.90;28.25;;;;;;;16.94;100.00;100462.72;5112309;28;20391;-78
2022/08/16 03:39:20;;;;;;;46.03;26.33;;;;;;;16.96;100.00;100471.34;5111864;28;20035;-78
2022/08/16 03:41:45;;;;;;;49.22;25.42;;;;;;;16.93;100.00;100463.78;5094837;28;20400;-79
2022/08/16 03:47:33;;;;;;;40.92;25.02;;;;;;;16.98;100.00;100471.91;5115368;28;20372;-75
2022/08/16 03:49:59;;;;;;;46.15;26.02;;;;;;;16.97;100.00;100478.38;5114443;28;20039;-77
2022/08/16 03:55:46;;;;;;;42.20;25.30;;;;;;;17.02;100.00;100489.19;5115333;28;20047;-77
2022/08/16 03:58:12;;;;;;;41.57;25.00;;;;;;;16.96;100.00;100479.47;5115042;28;20020;-77
2022/08/16 04:00:37;;;;;;;41.30;25.38;;;;;;;16.94;100.00;100486.22;5096901;28;20269;-77
2022/08/16 04:03:06;;;;;;;40.13;23.77;;;;;;;16.91;100.00;100484.03;5114108;28;20486;-77
2022/08/16 04:05:36;;;;;;;36.92;24.25;;;;;;;16.92;100.00;100491.88;5096810;28;20039;-77
2022/08/16 04:08:04;;;;;;;36.75;24.17;;;;;;;16.95;100.00;100504.03;5096123;28;20071;-77
2022/08/16 04:10:30;;;;;;;39.85;24.95;;;;;;;16.93;100.00;100498.91;5114953;28;20031;-77
2022/08/16 04:16:17;;;;;;;38.60;24.42;;;;;;;16.95;100.00;100502.16;5115184;28;20568;-77
2022/08/16 04:18:43;;;;;;;37.58;25.17;;;;;;;16.98;100.00;100508.91;5114877;28;20020;-77
2022/08/16 04:21:09;;;;;;;36.58;24.42;;;;;;;16.93;100.00;100493.50;5114166;28;20035;-77
2022/08/16 04:26:56;;;;;;;35.65;23.33;;;;;;;16.88;100.00;100506.19;5115075;28;20042;-77
2022/08/16 04:29:21;;;;;;;32.83;22.30;;;;;;;16.87;100.00;100505.38;5114734;28;20020;-77
2022/08/16 04:35:15;;;;;;;32.55;24.48;;;;;;;16.85;100.00;100506.72;5114902;28;20047;-77
2022/08/16 04:37:41;;;;;;;30.98;23.63;;;;;;;16.87;100.00;100499.16;5095982;28;20117;-76
2022/08/16 04:40:09;;;;;;;33.28;24.33;;;;;;;16.89;100.00;100510.50;5114085;28;20467;-77
2022/08/16 04:45:56;;;;;;;30.73;23.27;;;;;;;16.94;100.00;100503.22;5114743;28;20454;-77
2022/08/16 04:48:21;;;;;;;30.13;23.70;;;;;;;17.01;100.00;100508.38;5114377;28;20032;-76
2022/08/16 04:50:47;;;;;;;33.00;24.73;;;;;;;17.08;100.00;100502.75;5113419;28;20050;-77
2022/08/16 04:53:13;;;;;;;34.28;24.48;;;;;;;17.19;100.00;100507.91;5095975;28;20305;-77
2022/08/16 04:55:39;;;;;;;27.83;22.40;;;;;;;17.26;100.00;100518.47;5114172;28;20066;-77
2022/08/16 04:58:05;;;;;;;28.63;23.70;;;;;;;17.32;100.00;100511.97;5113521;28;20063;-77
2022/08/16 05:00:33;;;;;;;28.63;23.45;;;;;;;17.49;100.00;100523.38;5095939;28;20058;-77
2022/08/16 05:06:20;;;;;;;29.02;23.30;;;;;;;17.84;100.00;100511.00;5114467;28;20042;-77
2022/08/16 05:08:45;;;;;;;26.90;22.98;;;;;;;18.07;100.00;100510.47;5114109;28;20032;-77
2022/08/16 05:11:12;;;;;;;27.42;22.08;;;;;;;18.29;100.00;100512.09;5113411;28;20119;-77
2022/08/16 05:13:41;;;;;;;28.15;22.65;;;;;;;18.55;100.00;100522.59;5113905;28;20100;-77
2022/08/16 05:16:09;;;;;;;25.65;22.33;;;;;;;18.88;100.00;100523.06;5112983;28;20035;-77
2022/08/16 05:18:35;;;;;;;24.90;20.45;;;;;;;19.31;100.00;100526.09;5113866;28;20034;-78
2022/08/16 05:21:01;;;;;;;24.60;19.65;;;;;;;19.72;100.00;100532.13;5113910;28;20361;-77
2022/08/16 05:23:27;;;;;;;23.02;19.80;;;;;;;20.00;100.00;100539.50;5112839;28;20042;-78
2022/08/16 05:25:52;;;;;;;23.50;19.00;;;;;;;20.29;100.00;100539.53;5113824;28;20039;-78
2022/08/16 05:28:17;;;;;;;26.87;19.73;;;;;;;20.61;97.64;100549.00;5112954;28;20050;-77
2022/08/16 05:30:43;;;;;;;29.48;19.08;;;;;;;20.86;95.83;100545.22;5113747;28;20367;-77
2022/08/16 05:33:09;;;;;;;24.70;18.60;;;;;;;21.10;94.97;100545.16;5113740;28;20035;-77
2022/08/16 05:35:35;;;;;;;24.08;19.17;;;;;;;21.12;92.74;100538.38;5112748;28;20156;-77
2022/08/16 05:41:22;;;;;;;25.88;18.58;;;;;;;21.61;91.07;100548.03;5113817;28;20043;-77
2022/08/16 05:43:47;;;;;;;24.13;18.03;;;;;;;21.99;88.43;100550.75;5113549;28;20387;-78
2022/08/16 05:46:18;;;;;;;21.67;18.00;;;;;;;22.36;87.04;100558.84;5113617;28;20274;-77
2022/08/16 05:48:44;;;;;;;22.85;17.45;;;;;;;22.74;84.29;100555.97;5094482;28;20372;-77
2022/08/16 05:51:09;;;;;;;23.02;17.45;;;;;;;23.08;81.87;100561.03;5095107;28;20460;-78
2022/08/16 05:53:34;;;;;;;20.10;17.80;;;;;;;23.08;81.02;100563.75;5094416;28;20035;-76
2022/08/16 05:55:59;;;;;;;24.57;18.03;;;;;;;23.22;80.00;100559.13;5095245;28;20363;-77
2022/08/16 06:01:49;;;;;;;22.08;18.40;;;;;;;23.83;76.88;100551.50;5113183;28;20158;-77
2022/08/16 06:04:15;;;;;;;23.48;18.13;;;;;;;24.24;75.25;100559.50;5112417;28;20068;-77
2022/08/16 06:06:42;;;;;;;21.35;17.80;;;;;;;24.50;73.30;100563.22;5094375;28;20108;-78
2022/08/16 06:12:29;;;;;;;20.45;17.65;;;;;;;24.85;70.49;100566.09;5112511;28;20495;-78
2022/08/16 06:15:01;;;;;;;22.90;18.15;;;;;;;24.92;70.52;100572.75;5113104;28;20027;-77
2022/08/16 06:17:28;;;;;;;22.60;17.95;;;;;;;25.17;68.06;100573.16;5112934;28;20484;-77
2022/08/16 06:19:54;;;;;;;24.08;18.10;;;;;;;25.58;66.66;100579.03;5112042;28;20039;-77
2022/08/16 06:25:40;;;;;;;20.38;16.63;;;;;;;26.46;62.46;100577.88;5113235;28;20069;-77
2022/08/16 06:28:08;;;;;;;20.27;17.27;;;;;;;26.46;60.97;100591.59;5112830;28;20019;-77
2022/08/16 06:30:33;;;;;;;18.67;16.85;;;;;;;26.36;61.40;100578.22;5094510;28;20114;-77
2022/08/16 06:32:59;;;;;;;19.80;17.43;;;;;;;26.41;60.48;100591.75;5093949;28;20039;-77
2022/08/16 06:35:25;;;;;;;20.45;17.73;;;;;;;26.42;60.81;100587.88;5112420;28;20312;-77
2022/08/16 06:37:50;;;;;;;22.48;16.55;;;;;;;26.86;61.39;100594.81;5093735;28;20044;-78
2022/08/16 06:43:37;;;;;;;21.33;17.48;;;;;;;28.20;55.30;100589.44;5111871;28;20804;-76
2022/08/16 06:46:06;;;;;;;18.80;16.58;;;;;;;28.46;53.77;100591.94;5112750;28;20036;-77
2022/08/16 06:48:33;;;;;;;19.23;16.00;;;;;;;28.87;53.22;100588.22;5112674;28;20469;-77
2022/08/16 06:50:59;;;;;;;18.40;16.48;;;;;;;29.01;52.36;100590.66;5111607;28;20063;-76
2022/08/16 06:53:25;;;;;;;19.33;15.23;;;;;;;29.25;51.40;100594.22;5112482;28;20063;-77
2022/08/16 06:55:54;;;;;;;18.05;16.20;;;;;;;29.52;49.78;100597.41;5111873;28;20024;-76
2022/08/16 06:58:19;;;;;;;21.90;17.10;;;;;;;29.43;49.72;100597.50;5112261;28;20027;-77
2022/08/16 07:00:45;;;;;;;19.45;16.23;;;;;;;29.77;50.00;100590.66;5112530;28;20028;-78
2022/08/16 07:03:10;;;;;;;19.48;17.40;;;;;;;29.48;49.24;100588.22;5093219;28;20043;-77
2022/08/16 07:05:35;;;;;;;18.97;16.60;;;;;;;29.41;49.85;100599.00;5112351;28;20087;-77
2022/08/16 07:08:03;;;;;;;18.63;16.23;;;;;;;30.14;48.88;100596.88;5094175;28;20274;-77
2022/08/16 07:10:28;;;;;;;18.27;16.30;;;;;;;30.91;46.39;100599.28;5093457;28;20721;-77
2022/08/16 07:12:53;;;;;;;19.88;16.38;;;;;;;31.27;44.87;100600.19;5112232;28;20106;-76
2022/08/16 07:15:19;;;;;;;18.17;16.38;;;;;;;31.21;44.72;100602.41;5111451;28;20043;-77
2022/08/16 07:17:45;;;;;;;18.45;16.48;;;;;;;31.40;43.90;100610.75;5097433;28;20020;-77
2022/08/16 07:20:11;;;;;;;21.63;15.77;;;;;;;31.78;43.68;100617.53;5097339;28;20031;-77
2022/08/16 07:22:41;;;;;;;18.27;16.08;;;;;;;32.23;42.75;100616.06;5097157;28;20028;-77
2022/08/16 07:25:09;;;;;;;18.40;16.23;;;;;;;33.04;41.86;100615.97;5115761;28;20499;-78
2022/08/16 07:27:34;;;;;;;19.27;15.73;;;;;;;33.92;39.39;100615.69;5114645;28;20081;-77
2022/08/16 07:30:00;;;;;;;17.73;15.40;;;;;;;34.15;37.52;100617.16;5115667;28;20027;-77
2022/08/16 07:32:25;;;;;;;19.83;15.35;;;;;;;33.71;39.22;100619.75;5115535;28;20353;-77
2022/08/16 07:34:51;;;;;;;20.25;14.93;;;;;;;33.91;38.00;100631.53;5114763;28;20085;-76
2022/08/16 07:40:38;;;;;;;18.67;15.70;;;;;;;33.72;38.91;100617.78;5116008;28;20116;-77
2022/08/16 07:43:04;;;;;;;19.80;14.88;;;;;;;33.62;38.81;100637.84;5097134;28;20476;-77
2022/08/16 07:45:29;;;;;;;16.05;14.48;;;;;;;33.68;38.80;100631.59;5114615;28;20051;-77
2022/08/16 07:47:55;;;;;;;19.35;15.57;;;;;;;33.25;39.07;100638.47;5097146;28;20019;-77
2022/08/16 07:50:21;;;;;;;20.45;14.93;;;;;;;33.51;38.82;100629.38;5097222;28;20032;-77
2022/08/16 07:52:47;;;;;;;20.08;15.30;;;;;;;34.12;37.60;100631.78;5114641;28;20376;-78
2022/08/16 07:55:17;;;;;;;15.05;13.23;;;;;;;34.23;37.81;100634.69;5115203;28;20069;-77
2022/08/16 07:57:43;;;;;;;15.90;14.20;;;;;;;34.24;36.95;100633.50;5096460;28;20046;-76
2022/08/16 08:00:10;;;;;;;14.85;13.35;;;;;;;34.43;36.54;100636.13;5115372;28;20107;-77
2022/08/16 08:02:35;;;;;;;16.27;14.57;;;;;;;34.82;36.07;100640.44;5114852;28;20035;-77
2022/08/16 08:05:01;;;;;;;16.73;13.63;;;;;;;35.16;34.55;100632.81;5095856;28;20100;-77
2022/08/16 08:07:27;;;;;;;15.80;13.60;;;;;;;34.53;35.21;100629.06;5115095;28;20024;-76
2022/08/16 08:09:52;;;;;;;14.85;13.15;;;;;;;33.41;36.77;100638.34;5096086;28;20289;-77
2022/08/16 08:12:19;;;;;;;14.47;12.90;;;;;;;33.34;37.05;100641.03;5115116;28;20028;-76
2022/08/16 08:14:47;;;;;;;13.38;12.13;;;;;;;34.14;36.82;100648.06;5115052;28;20269;-78
2022/08/16 08:17:14;;;;;;;14.85;12.68;;;;;;;35.17;34.24;100639.97;5096327;28;20038;-76
2022/08/16 08:19:40;;;;;;;13.80;11.60;;;;;;;35.68;33.33;100651.84;5096639;28;20034;-77
2022/08/16 08:22:05;;;;;;;12.68;11.45;;;;;;;35.85;32.00;100655.13;5113883;28;20051;-76
2022/08/16 08:24:31;;;;;;;12.57;10.65;;;;;;;35.03;33.09;100647.03;5096459;28;20035;-77
2022/08/16 08:26:58;;;;;;;12.45;11.07;;;;;;;35.85;32.34;100641.22;5114240;28;20038;-78
2022/08/16 08:29:23;;;;;;;13.82;11.52;;;;;;;36.09;32.34;100648.06;5095866;28;20054;-77
2022/08/16 08:31:50;;;;;;;16.95;11.43;;;;;;;36.96;30.73;100645.88;5096450;28;20436;-76
2022/08/16 08:34:17;;;;;;;11.77;9.68;;;;;;;38.10;29.08;100643.66;5113910;28;20074;-78
2022/08/16 08:36:42;;;;;;;12.80;10.60;;;;;;;38.40;28.66;100647.91;5114626;28;20436;-77
2022/08/16 08:39:08;;;;;;;15.88;10.80;;;;;;;37.99;28.65;100647.72;5114618;28;20024;-78
2022/08/16 08:41:33;;;;;;;12.85;10.85;;;;;;;37.44;29.48;100649.06;5095932;28;20044;-77
2022/08/16 08:43:58;;;;;;;12.83;8.90;;;;;;;37.39;29.92;100652.25;5114555;28;20035;-78
2022/08/16 08:46:25;;;;;;;13.80;9.30;;;;;;;37.21;29.40;100657.81;5113546;28;20286;-77
2022/08/16 08:48:52;;;;;;;11.40;9.20;;;;;;;36.80;29.05;100649.09;5096147;28;20034;-76
2022/08/16 08:51:18;;;;;;;12.50;10.05;;;;;;;36.39;30.21;100651.38;5114327;28;20478;-76
2022/08/16 08:53:44;;;;;;;10.30;8.50;;;;;;;36.34;31.37;100657.34;5113595;28;20043;-78
2022/08/16 08:56:11;;;;;;;10.23;8.93;;;;;;;36.98;29.29;100651.84;5114343;28;20028;-77
2022/08/16 08:58:36;;;;;;;9.73;8.73;;;;;;;37.10;28.88;100662.63;5113370;28;20035;-77
2022/08/16 09:04:25;;;;;;;10.93;9.20;;;;;;;36.01;30.91;100658.38;5114138;28;20097;-78
2022/08/16 09:10:13;;;;;;;9.07;7.90;;;;;;;35.89;30.76;100659.53;5114596;28;20409;-78
2022/08/16 09:12:39;;;;;;;13.77;8.95;;;;;;;35.50;31.48;100664.06;5095853;28;20031;-77
2022/08/16 09:18:28;;;;;;;9.82;8.18;;;;;;;33.93;33.12;100658.91;5114229;28;20092;-76
2022/08/16 09:24:16;;;;;;;9.55;7.50;;;;;;;32.22;37.26;100667.84;5113843;28;20104;-77
2022/08/16 09:30:04;;;;;;;7.97;6.87;;;;;;;31.60;39.41;100664.13;5114150;28;20046;-78
2022/08/16 09:32:29;;;;;;;9.60;6.82;;;;;;;32.04;38.06;100674.97;5113820;28;20028;-77
2022/08/16 09:38:17;;;;;;;10.55;6.75;;;;;;;31.53;35.99;100663.97;5113037;28;20503;-76
2022/08/16 09:40:45;;;;;;;11.10;7.18;;;;;;;30.81;37.62;100674.41;5112466;28;20031;-76
2022/08/16 09:43:13;;;;;;;14.48;7.30;;;;;;;30.06;40.14;100671.50;5095023;28;20484;-77
2022/08/16 09:45:40;;;;;;;8.70;6.50;;;;;;;29.91;40.56;100665.53;5112585;28;20387;-76
2022/08/16 09:51:27;;;;;;;11.48;7.15;;;;;;;29.29;41.97;100668.69;5113588;28;20092;-76
2022/08/16 09:53:54;;;;;;;11.20;6.70;;;;;;;28.92;43.50;100656.88;5113468;28;20031;-77
2022/08/16 09:56:27;;;;;;;7.65;6.25;;;;;;;28.95;42.38;100662.50;5094293;28;20027;-77
2022/08/16 10:02:15;;;;;;;6.75;6.13;;;;;;;29.10;41.72;100669.25;5112829;28;20569;-77
2022/08/16 10:04:40;;;;;;;8.30;6.35;;;;;;;28.91;42.89;100667.06;5094853;28;20035;-77
2022/08/16 10:10:27;;;;;;;8.98;6.65;;;;;;;28.91;40.98;100661.56;5113195;28;20842;-77
2022/08/16 10:15:36;;;;;;;17.90;6.28;;;;;;;29.11;40.99;100670.88;5112329;28;20097;-77
2022/08/16 10:21:23;;;;;;;7.25;5.97;;;;;;;29.59;40.70;100667.34;5112924;28;20086;-75
2022/08/16 10:23:51;;;;;;;8.18;6.18;;;;;;;29.67;40.71;100670.31;5112846;28;20073;-76
2022/08/16 10:26:17;;;;;;;7.28;6.25;;;;;;;29.60;39.09;100657.13;5112027;28;20118;-78
2022/08/16 10:28:42;;;;;;;9.10;6.30;;;;;;;29.51;40.31;100665.50;5112909;28;20066;-77
2022/08/16 10:31:09;;;;;;;10.10;6.20;;;;;;;29.48;40.41;100671.69;5112381;28;20455;-77
2022/08/16 10:33:35;;;;;;;8.85;5.53;;;;;;;29.40;40.84;100666.28;5112602;28;20043;-77
2022/08/16 10:36:05;;;;;;;7.50;5.72;;;;;;;29.43;39.44;100673.84;5112912;28;20028;-77
2022/08/16 10:38:32;;;;;;;8.57;5.57;;;;;;;29.43;39.87;100673.84;5111891;28;20032;-76
2022/08/16 10:40:57;;;;;;;8.77;5.55;;;;;;;29.44;40.02;100669.94;5094248;28;20043;-77
2022/08/16 10:43:23;;;;;;;9.38;6.53;;;;;;;29.26;40.60;100672.16;5093559;28;20039;-76
2022/08/16 10:45:50;;;;;;;8.23;5.93;;;;;;;29.30;40.60;100665.59;5112712;28;20110;-77
2022/08/16 10:48:16;;;;;;;9.93;5.65;;;;;;;29.55;41.65;100677.44;5094399;28;20116;-77
2022/08/16 10:50:41;;;;;;;7.28;5.88;;;;;;;29.87;39.36;100689.47;5093488;28;20507;-76
2022/08/16 10:53:07;;;;;;;10.25;5.93;;;;;;;30.01;39.48;100682.75;5112368;28;20418;-77
2022/08/16 10:55:37;;;;;;;7.77;6.17;;;;;;;29.99;39.32;100679.53;5111704;28;20484;-78
2022/08/16 11:01:24;;;;;;;7.55;5.70;;;;;;;30.00;41.17;100683.91;5112592;28;20039;-77
2022/08/16 11:07:12;;;;;;;5.97;4.63;;;;;;;30.09;37.59;100677.16;5112538;28;20062;-77
2022/08/16 11:12:59;;;;;;;10.20;5.47;;;;;;;30.19;37.58;100684.91;5112625;28;20054;-78
2022/08/16 11:15:25;;;;;;;7.47;5.45;;;;;;;30.37;36.82;100690.94;5111569;28;20448;-78
2022/08/16 11:21:13;;;;;;;8.07;5.07;;;;;;;29.94;37.45;100691.63;5112392;28;20104;-77
2022/08/16 11:27:01;;;;;;;5.93;5.13;;;;;;;29.80;37.53;100697.53;5112355;28;20050;-76
2022/08/16 11:29:26;;;;;;;6.03;4.97;;;;;;;29.91;38.20;100698.63;5112145;28;20024;-77
2022/08/16 11:31:51;;;;;;;6.17;5.07;;;;;;;29.98;38.06;100683.44;5093155;28;20796;-75
2022/08/16 11:34:16;;;;;;;6.07;5.25;;;;;;;30.00;36.74;100698.50;5111988;28;20281;-75
2022/08/16 11:36:42;;;;;;;7.43;4.80;;;;;;;29.98;37.96;100702.75;5111445;28;20069;-74
2022/08/16 11:42:29;;;;;;;7.90;5.22;;;;;;;29.97;37.05;100701.16;5112129;28;20058;-74
2022/08/16 11:44:54;;;;;;;9.57;5.10;;;;;;;29.79;37.62;100697.88;5111104;28;20503;-74
2022/08/16 11:47:20;;;;;;;5.70;4.80;;;;;;;29.68;38.64;100708.53;5093554;28;20285;-75
2022/08/16 11:49:45;;;;;;;4.87;4.37;;;;;;;29.57;38.06;100713.72;5111109;28;20284;-77
2022/08/16 11:55:33;;;;;;;9.90;4.60;;;;;;;29.33;38.92;100704.63;5112022;28;20854;-75
2022/08/16 12:01:20;;;;;;;8.38;4.60;;;;;;;29.33;38.88;100715.66;5111309;28;20042;-76
2022/08/16 12:03:45;;;;;;;6.87;4.43;;;;;;;29.36;38.59;100712.19;5114744;28;20039;-75
2022/08/16 12:06:14;;;;;;;7.60;5.10;;;;;;;29.58;38.26;100720.84;5115199;28;20027;-75
2022/08/16 12:08:42;;;;;;;8.10;4.95;;;;;;;30.11;37.99;100720.94;5114248;28;20295;-76
2022/08/16 12:11:08;;;;;;;4.95;4.38;;;;;;;30.73;36.38;100719.56;5114963;28;20373;-75
2022/08/16 12:13:33;;;;;;;5.80;4.75;;;;;;;31.08;35.72;100708.66;5114208;28;20118;-74
2022/08/16 12:15:59;;;;;;;7.57;5.18;;;;;;;31.36;34.59;100717.69;5114946;28;20034;-75
2022/08/16 12:25:13;;;;;;;7.10;4.63;;;;;;;32.68;31.73;100712.31;5115300;28;20452;-77
2022/08/16 12:31:00;;;;;;;6.55;4.75;;;;;;;31.78;33.66;100719.84;5114736;28;20042;-77
2022/08/16 12:36:47;;;;;;;9.45;4.80;;;;;;;31.07;33.63;100716.13;5114652;28;20276;-78
2022/08/16 12:42:34;;;;;;;6.43;4.85;;;;;;;30.91;36.08;100712.53;5114501;28;20084;-77
2022/08/16 12:54:33;;;;;;;7.10;4.97;;;;;;;31.70;33.59;100724.41;5114385;28;20039;-78
2022/08/16 13:00:21;;;;;;;9.60;4.90;;;;;;;31.78;33.00;100708.78;5114362;28;20143;-78
2022/08/16 13:06:08;;;;;;;6.70;4.63;;;;;;;31.79;34.11;100727.00;5114558;28;20065;-76
2022/08/16 13:12:02;;;;;;;5.60;4.32;;;;;;;31.21;32.73;100715.69;5114427;28;20136;-76
2022/08/16 13:17:49;;;;;;;7.18;4.25;;;;;;;31.19;32.43;100704.22;5113237;28;20085;-76
2022/08/16 13:23:37;;;;;;;9.80;4.85;;;;;;;30.91;32.58;100704.25;5113915;28;20084;-79
2022/08/16 13:29:23;;;;;;;6.03;4.43;;;;;;;30.81;32.54;100702.81;5113470;28;20476;-78
2022/08/16 13:35:10;;;;;;;5.38;4.10;;;;;;;30.20;33.43;100710.53;5113701;28;20297;-77
2022/08/16 13:40:57;;;;;;;4.90;4.15;;;;;;;30.56;33.22;100697.75;5113596;28;20280;-77
2022/08/16 13:46:46;;;;;;;8.27;4.85;;;;;;;30.07;34.91;100708.97;5112900;28;20134;-77
2022/08/16 13:52:33;;;;;;;5.20;4.70;;;;;;;29.78;35.67;100721.88;5113392;28;20047;-77
2022/08/16 13:58:20;;;;;;;5.00;4.50;;;;;;;30.26;34.51;100711.91;5113273;28;20077;-78
2022/08/16 14:04:07;;;;;;;5.97;4.57;;;;;;;30.28;35.96;100712.34;5113355;28;20038;-78
2022/08/16 14:09:55;;;;;;;8.93;4.95;;;;;;;30.46;35.48;100710.09;5113464;28;20104;-77
2022/08/16 14:15:41;;;;;;;8.55;5.30;;;;;;;30.44;34.46;100715.19;5113150;28;20273;-73
2022/08/16 14:21:28;;;;;;;7.05;5.00;;;;;;;30.44;36.17;100713.22;5113036;28;20392;-75
2022/08/16 14:27:19;;;;;;;7.65;5.10;;;;;;;30.72;32.95;100709.69;5113243;28;20121;-77
2022/08/16 14:29:45;;;;;;;9.27;4.78;;;;;;;30.76;35.67;100716.09;5112020;28;20047;-76
2022/08/16 14:35:33;;;;;;;9.32;4.95;;;;;;;30.56;36.07;100711.56;5113176;28;20481;-76
2022/08/16 14:41:20;;;;;;;7.85;4.50;;;;;;;30.59;35.43;100708.09;5112291;28;20072;-77
2022/08/16 14:47:07;;;;;;;6.05;4.72;;;;;;;30.50;34.03;100711.00;5112591;28;20502;-80
2022/08/16 14:52:58;;;;;;;10.40;4.90;;;;;;;30.65;35.06;100709.47;5112747;28;20177;-77
2022/08/16 14:58:45;;;;;;;5.30;4.63;;;;;;;30.67;33.75;100709.94;5113026;28;20054;-77
2022/08/16 15:04:33;;;;;;;6.40;5.30;;;;;;;30.48;34.97;100708.59;5112476;28;20033;-79
2022/08/16 15:06:59;;;;;;;7.20;4.70;;;;;;;30.41;34.96;100713.94;5111727;28;20044;-78
2022/08/16 15:12:46;;;;;;;6.65;4.82;;;;;;;30.31;35.68;100706.13;5111663;28;20264;-76
2022/08/16 15:18:33;;;;;;;8.48;4.85;;;;;;;30.38;37.28;100706.34;5112257;28;20042;-75
2022/08/16 15:24:20;;;;;;;8.18;5.00;;;;;;;30.19;35.16;100703.41;5112109;28;20078;-78
2022/08/16 15:30:18;;;;;;;10.60;5.30;;;;;;;29.71;36.02;100713.38;5112322;28;20521;-80
2022/08/16 15:36:06;;;;;;;7.03;4.80;;;;;;;29.53;36.43;100709.25;5112398;28;20085;-78
2022/08/16 15:41:58;;;;;;;5.90;4.65;;;;;;;29.47;37.28;100719.69;5115907;28;20415;-80
2022/08/16 15:47:45;;;;;;;5.28;4.78;;;;;;;29.39;38.66;100719.78;5115685;28;20128;-78
2022/08/16 15:53:34;;;;;;;5.78;4.80;;;;;;;29.33;39.66;100726.66;5115604;28;20042;-78